Time;durP1;ratioP1;P1;durP2;ratioP2;P2;SDS_P1;SDS_P2;PMS_P1;PMS_P2;Temp;Humidity;BMP_temperature;BMP_pressure;BME280_temperature;BME280_humidity;BME280_pressure;Samples;Min_cycle;Max_cycle;Signal;HPM_P1;HPM_P2
2023/01/30 00:00:51;;;;;;;22.00;13.47;;;;;;;4.79;96.89;99762.97;5030727;28;20197;-56
2023/01/30 00:03:21;;;;;;;22.60;13.77;;;;;;;4.77;96.53;99761.25;5030607;28;20201;-56
2023/01/30 00:05:47;;;;;;;18.97;13.00;;;;;;;4.78;96.33;99763.84;5030552;28;20973;-56
2023/01/30 00:08:15;;;;;;;19.53;13.37;;;;;;;4.79;96.55;99768.13;5030453;28;20208;-56
2023/01/30 00:10:42;;;;;;;22.80;13.03;;;;;;;4.78;96.64;99763.84;5030820;28;20582;-56
2023/01/30 00:13:09;;;;;;;20.93;12.97;;;;;;;4.80;96.47;99756.97;5030367;28;20201;-57
2023/01/30 00:15:36;;;;;;;19.90;12.50;;;;;;;4.79;95.91;99760.41;5030439;28;20688;-59
2023/01/30 00:18:03;;;;;;;19.57;12.50;;;;;;;4.67;96.22;99761.28;5030272;28;20203;-57
2023/01/30 00:20:32;;;;;;;18.27;13.13;;;;;;;4.68;95.96;99762.13;5030242;28;20191;-58
2023/01/30 00:22:59;;;;;;;18.90;12.47;;;;;;;4.73;95.77;99766.44;5030606;28;20284;-57
2023/01/30 00:25:27;;;;;;;18.20;11.93;;;;;;;4.82;95.19;99763.00;5030295;28;20223;-56
2023/01/30 00:27:53;;;;;;;21.43;13.00;;;;;;;4.85;95.98;99765.56;5030684;28;20334;-56
2023/01/30 00:30:20;;;;;;;20.40;13.07;;;;;;;4.75;95.55;99761.25;5030296;28;20244;-56
2023/01/30 00:32:47;;;;;;;23.33;13.57;;;;;;;4.64;95.86;99748.44;5030145;28;20503;-56
2023/01/30 00:35:14;;;;;;;20.07;12.83;;;;;;;4.66;95.66;99746.72;5030063;28;20209;-56
2023/01/30 00:37:43;;;;;;;20.63;13.57;;;;;;;4.75;95.67;99758.69;5030093;28;20190;-56
2023/01/30 00:40:11;;;;;;;19.97;12.57;;;;;;;4.71;95.34;99746.72;5030085;28;20203;-56
2023/01/30 00:48:07;;;;;;;18.53;13.10;;;;;;;4.78;95.63;99758.69;5030091;28;20709;-56
2023/01/30 00:50:42;;;;;;;20.27;12.63;;;;;;;4.83;95.66;99767.28;5030394;28;20208;-55
2023/01/30 00:53:11;;;;;;;20.73;12.97;;;;;;;4.86;96.21;99756.97;5029961;28;20197;-55
2023/01/30 00:55:38;;;;;;;19.97;13.23;;;;;;;4.76;95.94;99757.84;5029618;28;20196;-56
2023/01/30 00:58:05;;;;;;;19.83;12.97;;;;;;;4.73;96.77;99755.28;5029811;28;20197;-56
2023/01/30 01:00:33;;;;;;;22.10;14.43;;;;;;;4.82;96.07;99755.28;5029845;28;20214;-56
2023/01/30 01:03:00;;;;;;;19.20;12.77;;;;;;;4.74;96.46;99751.84;5029933;28;20208;-57
2023/01/30 01:05:27;;;;;;;20.83;12.97;;;;;;;4.74;96.60;99749.25;5031525;28;20732;-57
2023/01/30 01:07:55;;;;;;;24.93;13.77;;;;;;;4.83;96.21;99758.69;5034081;28;20240;-57
2023/01/30 01:10:23;;;;;;;24.27;14.67;;;;;;;4.70;96.72;99747.56;5033850;28;20280;-57
2023/01/30 01:12:52;;;;;;;20.93;13.90;;;;;;;4.75;96.24;99744.13;5034139;28;20193;-56
2023/01/30 01:15:20;;;;;;;24.77;14.80;;;;;;;4.68;96.83;99739.88;5033816;28;20667;-57
2023/01/30 01:17:47;;;;;;;23.47;14.60;;;;;;;4.64;96.62;99735.56;5033838;28;20843;-57
2023/01/30 01:20:14;;;;;;;23.90;14.83;;;;;;;4.56;97.35;99737.31;5033743;28;20193;-55
2023/01/30 01:22:41;;;;;;;21.80;14.57;;;;;;;4.60;97.58;99743.31;5033326;28;20193;-56
2023/01/30 01:25:09;;;;;;;22.37;14.47;;;;;;;4.64;97.21;99734.72;5033578;28;20205;-55
2023/01/30 01:27:38;;;;;;;24.47;14.93;;;;;;;4.57;97.77;99728.75;5033335;28;20193;-56
2023/01/30 01:30:06;;;;;;;21.00;13.67;;;;;;;4.60;97.72;99727.88;5033544;28;20712;-56
2023/01/30 01:32:33;;;;;;;23.07;13.67;;;;;;;4.56;97.18;99724.44;5033508;28;20604;-56
2023/01/30 01:34:59;;;;;;;22.53;14.53;;;;;;;4.56;97.33;99726.16;5033299;28;20197;-56
2023/01/30 01:37:26;;;;;;;23.73;13.80;;;;;;;4.62;97.10;99726.16;5033209;28;20294;-56
2023/01/30 01:42:39;;;;;;;23.37;13.37;;;;;;;4.77;96.17;99732.97;5033026;28;20380;-56
2023/01/30 01:45:17;;;;;;;21.53;13.97;;;;;;;4.82;96.74;99720.97;5033217;28;20218;-56
2023/01/30 01:47:50;;;;;;;21.73;13.83;;;;;;;4.83;96.55;99725.28;5033023;28;20585;-56
2023/01/30 01:50:22;;;;;;;23.23;13.97;;;;;;;4.80;96.58;99728.69;5033281;28;20344;-57
2023/01/30 01:52:54;;;;;;;19.53;12.37;;;;;;;4.83;96.35;99732.97;5033132;28;20212;-56
2023/01/30 01:55:24;;;;;;;20.17;12.73;;;;;;;4.89;96.00;99730.38;5033283;28;20204;-56
2023/01/30 01:57:55;;;;;;;20.77;12.60;;;;;;;4.89;95.54;99728.66;5033033;28;20201;-57
2023/01/30 02:00:23;;;;;;;19.93;12.87;;;;;;;4.87;95.39;99727.81;5032757;28;20201;-55
2023/01/30 02:02:56;;;;;;;20.67;13.07;;;;;;;4.78;95.54;99724.41;5033054;28;21065;-57
2023/01/30 02:05:25;;;;;;;21.90;12.13;;;;;;;4.75;95.27;99715.84;5032786;28;20203;-56
2023/01/30 02:07:59;;;;;;;22.23;12.60;;;;;;;4.68;94.87;99706.44;5032849;28;20193;-57
2023/01/30 02:10:34;;;;;;;20.50;12.43;;;;;;;4.68;95.06;99721.88;5033277;28;20584;-57
2023/01/30 02:13:03;;;;;;;20.37;12.63;;;;;;;4.66;95.17;99715.00;5033137;28;20678;-57
2023/01/30 02:15:30;;;;;;;20.53;12.93;;;;;;;4.75;94.65;99720.13;5032524;28;20282;-57
2023/01/30 02:17:57;;;;;;;17.03;11.30;;;;;;;4.83;93.86;99722.69;5032722;28;20201;-56
2023/01/30 02:20:38;;;;;;;19.37;11.90;;;;;;;4.75;94.79;99713.28;5032474;28;20207;-56
2023/01/30 02:23:41;;;;;;;21.07;11.67;;;;;;;4.74;94.46;99721.84;5032271;28;20203;-55
2023/01/30 02:26:38;;;;;;;18.93;11.47;;;;;;;4.64;94.42;99717.56;5032290;28;20232;-55
2023/01/30 02:29:38;;;;;;;20.57;12.17;;;;;;;4.69;93.84;99713.28;5032447;28;20228;-56
2023/01/30 02:32:14;;;;;;;21.50;12.20;;;;;;;4.81;93.93;99712.41;5032336;28;20204;-56
2023/01/30 02:34:49;;;;;;;20.80;11.93;;;;;;;4.77;93.64;99714.97;5032252;28;20200;-55
2023/01/30 02:37:28;;;;;;;18.07;11.67;;;;;;;4.65;93.62;99703.00;5031206;28;20370;-57
2023/01/30 02:40:09;;;;;;;18.17;11.27;;;;;;;4.69;93.26;99715.00;5031845;28;20201;-56
2023/01/30 02:42:44;;;;;;;18.60;11.80;;;;;;;4.70;92.79;99716.72;5031918;28;20679;-57
2023/01/30 02:45:21;;;;;;;18.40;11.57;;;;;;;4.62;92.26;99706.47;5032194;28;20601;-56
2023/01/30 02:47:56;;;;;;;20.33;11.67;;;;;;;4.66;92.91;99708.16;5031747;28;20224;-57
2023/01/30 02:50:27;;;;;;;18.37;12.23;;;;;;;4.69;92.70;99708.16;5031867;28;20197;-56
2023/01/30 02:52:55;;;;;;;19.20;11.27;;;;;;;4.67;93.14;99709.00;5031962;28;20207;-56
2023/01/30 02:55:24;;;;;;;18.53;11.63;;;;;;;4.65;92.45;99710.72;5032020;28;20684;-56
2023/01/30 02:57:51;;;;;;;20.17;11.30;;;;;;;4.60;92.48;99702.19;5031910;28;20197;-57
2023/01/30 03:00:23;;;;;;;20.10;11.20;;;;;;;4.59;93.02;99696.19;5031880;28;20212;-56
2023/01/30 03:03:23;;;;;;;20.77;12.37;;;;;;;4.56;93.02;99701.31;5031596;28;20197;-56
2023/01/30 03:06:20;;;;;;;20.73;12.33;;;;;;;4.53;93.56;99691.03;5031641;28;20197;-56
2023/01/30 03:09:03;;;;;;;17.00;11.13;;;;;;;4.51;93.57;99686.78;5031726;28;20205;-57
2023/01/30 03:11:40;;;;;;;18.80;12.20;;;;;;;4.68;93.11;99698.72;5031918;28;20199;-57
2023/01/30 03:14:14;;;;;;;25.33;12.90;;;;;;;4.70;92.75;99704.72;5031640;28;20640;-55
2023/01/30 03:16:41;;;;;;;22.33;12.77;;;;;;;4.66;92.66;99690.16;5031918;28;20189;-56
2023/01/30 03:19:12;;;;;;;22.63;13.17;;;;;;;4.64;93.24;99698.72;5031291;28;20240;-56
2023/01/30 03:21:41;;;;;;;20.77;13.20;;;;;;;4.67;92.78;99691.00;5031373;28;20204;-57
2023/01/30 03:24:08;;;;;;;25.23;13.60;;;;;;;4.55;93.61;99694.47;5031370;28;20194;-57
2023/01/30 03:26:40;;;;;;;24.87;13.40;;;;;;;4.46;94.06;99684.19;5031368;28;20282;-56
2023/01/30 03:29:07;;;;;;;22.27;13.47;;;;;;;4.57;93.57;99684.19;5030870;28;20214;-55
2023/01/30 03:31:34;;;;;;;25.43;13.90;;;;;;;4.54;93.43;99676.47;5031130;28;20677;-57
2023/01/30 03:34:01;;;;;;;22.53;13.27;;;;;;;4.55;92.83;99675.63;5031127;28;20206;-57
2023/01/30 03:36:29;;;;;;;24.30;13.37;;;;;;;4.46;93.25;99681.63;5031077;28;20200;-56
2023/01/30 03:38:56;;;;;;;21.70;13.20;;;;;;;4.45;92.85;99679.06;5031252;28;20722;-55
2023/01/30 03:41:23;;;;;;;22.53;13.17;;;;;;;4.51;92.65;99681.63;5031133;28;20584;-56
2023/01/30 03:43:50;;;;;;;22.30;12.87;;;;;;;4.44;93.09;99674.78;5030860;28;20229;-55
2023/01/30 03:46:16;;;;;;;21.43;12.17;;;;;;;4.43;92.54;99667.91;5030941;28;20225;-57
2023/01/30 03:48:43;;;;;;;19.20;12.87;;;;;;;4.44;92.39;99674.78;5030761;28;20296;-55
2023/01/30 03:51:10;;;;;;;22.33;13.50;;;;;;;4.56;91.78;99685.03;5031009;28;20204;-57
2023/01/30 03:53:38;;;;;;;23.60;13.13;;;;;;;4.41;91.53;99685.06;5030968;28;20205;-57
2023/01/30 03:56:06;;;;;;;24.57;12.70;;;;;;;4.36;92.36;99677.38;5030625;28;20208;-55
2023/01/30 03:58:33;;;;;;;22.73;13.37;;;;;;;4.38;91.76;99683.38;5030665;28;20647;-56
2023/01/30 04:00:59;;;;;;;24.60;13.57;;;;;;;4.46;91.44;99686.78;5030565;28;20208;-56
2023/01/30 04:03:26;;;;;;;21.77;13.27;;;;;;;4.45;91.58;99691.91;5030733;28;20661;-56
2023/01/30 04:05:53;;;;;;;22.90;13.50;;;;;;;4.41;91.41;99683.34;5030869;28;20201;-56
2023/01/30 04:08:20;;;;;;;21.63;13.13;;;;;;;4.45;90.97;99681.63;5030505;28;20244;-56
2023/01/30 04:10:48;;;;;;;23.37;13.53;;;;;;;4.35;91.59;99673.09;5030633;28;20591;-56
2023/01/30 04:13:15;;;;;;;20.40;13.20;;;;;;;4.38;91.16;99668.81;5030468;28;20201;-56
2023/01/30 04:15:42;;;;;;;23.73;12.60;;;;;;;4.30;91.72;99672.22;5030210;28;20195;-55
2023/01/30 04:18:09;;;;;;;24.10;13.83;;;;;;;4.36;91.63;99670.50;5030552;28;20196;-56
2023/01/30 04:20:37;;;;;;;24.10;12.97;;;;;;;4.37;91.50;99667.09;5030687;28;20208;-56
2023/01/30 04:23:04;;;;;;;23.97;13.83;;;;;;;4.23;92.15;99670.53;5030356;28;20237;-56
2023/01/30 04:25:31;;;;;;;20.30;12.63;;;;;;;4.21;92.27;99667.94;5030297;28;20205;-56
2023/01/30 04:27:59;;;;;;;21.07;12.57;;;;;;;4.26;91.58;99668.81;5030324;28;20612;-57
2023/01/30 04:30:26;;;;;;;18.57;12.70;;;;;;;4.26;91.63;99671.38;5030108;28;20209;-57
2023/01/30 04:32:53;;;;;;;20.27;12.73;;;;;;;4.20;90.69;99666.25;5030249;28;20203;-57
2023/01/30 04:35:20;;;;;;;21.53;13.33;;;;;;;4.27;91.32;99667.97;5030378;28;20585;-56
2023/01/30 04:37:47;;;;;;;21.97;12.87;;;;;;;4.32;90.57;99671.38;5030145;28;20290;-56
2023/01/30 04:40:14;;;;;;;19.47;12.43;;;;;;;4.23;90.80;99665.38;5029667;28;20286;-56
2023/01/30 04:42:41;;;;;;;22.97;12.97;;;;;;;4.36;91.11;99672.22;5029785;28;20203;-56
2023/01/30 04:45:10;;;;;;;22.57;12.33;;;;;;;4.30;91.13;99672.22;5029107;28;20203;-56
2023/01/30 04:47:37;;;;;;;22.03;12.80;;;;;;;4.24;91.04;99675.66;5023078;28;20216;-56
2023/01/30 04:50:05;;;;;;;23.20;13.17;;;;;;;4.19;91.57;99677.38;5029165;28;20611;-56
2023/01/30 04:52:31;;;;;;;22.80;13.07;;;;;;;4.17;91.90;99673.13;5029700;28;20199;-56
2023/01/30 04:54:58;;;;;;;21.53;12.97;;;;;;;4.14;91.93;99681.66;5029258;28;20200;-57
2023/01/30 04:57:25;;;;;;;23.43;13.30;;;;;;;4.19;91.87;99669.66;5029668;28;20270;-58
2023/01/30 04:59:52;;;;;;;27.63;13.43;;;;;;;4.15;91.74;99673.09;5029776;28;20196;-56
2023/01/30 05:02:20;;;;;;;20.37;12.93;;;;;;;4.20;91.92;99661.09;5030205;28;20602;-57
2023/01/30 05:04:49;;;;;;;22.93;12.80;;;;;;;4.15;92.02;99667.97;5029927;28;20208;-56
2023/01/30 05:07:16;;;;;;;18.70;11.97;;;;;;;4.15;91.69;99673.09;5029804;28;20217;-57
2023/01/30 05:09:43;;;;;;;21.10;12.43;;;;;;;4.21;91.72;99667.09;5029905;28;20199;-57
2023/01/30 05:12:10;;;;;;;25.80;12.60;;;;;;;4.12;91.59;99667.09;5030109;28;20225;-57
2023/01/30 05:14:40;;;;;;;21.77;12.47;;;;;;;4.07;91.46;99669.66;5029960;28;20201;-56
2023/01/30 05:17:08;;;;;;;18.90;12.03;;;;;;;4.09;91.10;99677.38;5029833;28;20196;-55
2023/01/30 05:19:36;;;;;;;19.00;11.60;;;;;;;4.13;90.68;99672.25;5029630;28;20198;-56
2023/01/30 05:22:03;;;;;;;20.57;12.37;;;;;;;4.15;90.52;99682.53;5029709;28;20197;-55
2023/01/30 05:24:30;;;;;;;22.73;12.97;;;;;;;4.15;90.42;99675.69;5029459;28;20201;-56
2023/01/30 05:26:57;;;;;;;20.90;12.70;;;;;;;4.08;90.60;99673.94;5029656;28;20225;-56
2023/01/30 05:29:24;;;;;;;20.93;11.90;;;;;;;4.11;90.34;99675.66;5030237;28;20670;-57
2023/01/30 05:31:51;;;;;;;26.20;12.73;;;;;;;4.18;91.79;99661.94;5030217;28;20197;-56
2023/01/30 05:34:18;;;;;;;20.37;12.47;;;;;;;4.16;89.71;99672.25;5029861;28;20597;-55
2023/01/30 05:36:46;;;;;;;21.57;12.13;;;;;;;4.13;89.94;99681.66;5029725;28;20341;-56
2023/01/30 05:39:13;;;;;;;19.63;12.23;;;;;;;3.98;90.62;99670.53;5029559;28;20193;-55
2023/01/30 05:41:40;;;;;;;23.33;12.67;;;;;;;4.11;90.10;99675.66;5029419;28;20209;-56
2023/01/30 05:44:07;;;;;;;22.87;13.33;;;;;;;4.16;90.37;99679.97;5027612;28;20237;-56
2023/01/30 05:46:34;;;;;;;21.77;12.67;;;;;;;4.12;90.30;99677.38;5029431;28;20202;-56
2023/01/30 05:49:02;;;;;;;24.30;12.67;;;;;;;4.14;90.43;99671.41;5028573;28;20281;-55
2023/01/30 05:51:30;;;;;;;25.90;13.17;;;;;;;4.21;90.04;99677.38;5030280;28;20251;-57
2023/01/30 05:53:58;;;;;;;21.47;12.40;;;;;;;4.22;90.38;99677.38;5033533;28;20229;-57
2023/01/30 05:56:25;;;;;;;21.70;12.67;;;;;;;4.21;90.20;99680.81;5033209;28;20669;-56
2023/01/30 05:58:53;;;;;;;23.17;12.63;;;;;;;4.27;90.21;99669.69;5032283;28;20200;-56
2023/01/30 06:01:21;;;;;;;24.93;13.47;;;;;;;4.27;89.31;99673.09;5028143;28;20193;-56
2023/01/30 06:03:48;;;;;;;26.00;13.30;;;;;;;4.32;89.80;99675.66;5033428;28;20571;-56
2023/01/30 06:06:15;;;;;;;23.43;13.10;;;;;;;4.30;89.36;99664.50;5033122;28;20201;-57
2023/01/30 06:08:42;;;;;;;20.90;12.53;;;;;;;4.30;88.84;99672.22;5032983;28;20225;-57
2023/01/30 06:11:13;;;;;;;19.07;12.47;;;;;;;4.25;89.13;99672.25;5031164;28;20233;-56
2023/01/30 06:13:40;;;;;;;20.77;12.23;;;;;;;4.27;89.24;99679.94;5032358;28;20224;-59
2023/01/30 06:16:08;;;;;;;23.23;12.10;;;;;;;4.25;88.95;99674.81;5032290;28;20255;-58
2023/01/30 06:18:36;;;;;;;21.47;12.40;;;;;;;4.22;89.28;99685.09;5030470;28;20220;-55
2023/01/30 06:21:02;;;;;;;22.97;12.70;;;;;;;4.28;89.53;99686.81;5032028;28;20626;-56
2023/01/30 06:23:29;;;;;;;21.50;12.50;;;;;;;4.37;89.54;99691.94;5034118;28;20224;-57
2023/01/30 06:25:56;;;;;;;25.30;12.97;;;;;;;4.34;89.13;99690.22;5033227;28;20201;-57
2023/01/30 06:28:26;;;;;;;19.87;11.67;;;;;;;4.45;89.12;99689.34;5030232;28;20316;-57
2023/01/30 06:30:53;;;;;;;26.30;13.50;;;;;;;4.50;89.00;99687.63;5031845;28;20197;-56
2023/01/30 06:33:21;;;;;;;22.73;12.40;;;;;;;4.50;88.57;99695.34;5031837;28;20589;-58
2023/01/30 06:35:50;;;;;;;21.20;12.07;;;;;;;4.48;88.50;99682.50;5031373;28;20229;-57
2023/01/30 06:38:18;;;;;;;21.67;12.33;;;;;;;4.51;88.38;99694.50;5032467;28;20196;-58
2023/01/30 06:40:47;;;;;;;20.53;11.83;;;;;;;4.38;88.94;99691.94;5032642;28;20201;-58
2023/01/30 06:43:14;;;;;;;21.97;12.33;;;;;;;4.32;89.23;99685.94;5032056;28;20232;-56
2023/01/30 06:45:43;;;;;;;21.83;12.17;;;;;;;4.32;89.23;99685.94;5031841;28;20197;-56
2023/01/30 06:48:10;;;;;;;23.27;12.83;;;;;;;4.32;88.98;99707.34;5032086;28;20712;-56
2023/01/30 06:50:37;;;;;;;20.77;11.80;;;;;;;4.35;89.30;99686.78;5032107;28;20199;-56
2023/01/30 06:53:05;;;;;;;19.97;11.57;;;;;;;4.38;88.63;99684.22;5032367;28;20197;-56
2023/01/30 06:55:34;;;;;;;21.77;11.73;;;;;;;4.44;89.02;99697.91;5031569;28;20201;-57
2023/01/30 06:58:02;;;;;;;21.77;12.00;;;;;;;4.37;89.03;99690.22;5030795;28;20199;-57
2023/01/30 07:00:30;;;;;;;25.07;11.97;;;;;;;4.52;88.63;99702.16;5031469;28;20220;-56
2023/01/30 07:02:58;;;;;;;17.20;11.50;;;;;;;4.45;89.01;99691.91;5031507;28;20201;-57
2023/01/30 07:05:27;;;;;;;26.50;11.80;;;;;;;4.52;88.84;99696.16;5031844;28;20208;-58
2023/01/30 07:07:54;;;;;;;23.33;13.20;;;;;;;4.46;89.14;99703.91;5031816;28;20317;-56
2023/01/30 07:10:21;;;;;;;21.20;11.90;;;;;;;4.49;88.25;99701.34;5031659;28;20201;-55
2023/01/30 07:12:48;;;;;;;20.57;11.90;;;;;;;4.43;88.80;99694.47;5031009;28;20223;-56
2023/01/30 07:15:15;;;;;;;19.80;12.20;;;;;;;4.35;89.11;99691.06;5031324;28;20197;-56
2023/01/30 07:17:42;;;;;;;20.37;11.80;;;;;;;4.48;89.00;99699.63;5031213;28;20201;-56
2023/01/30 07:20:11;;;;;;;22.03;12.43;;;;;;;4.47;89.54;99696.19;5030426;28;20208;-55
2023/01/30 07:22:38;;;;;;;22.07;11.53;;;;;;;4.48;89.43;99699.63;5030737;28;20280;-56
2023/01/30 07:25:06;;;;;;;22.03;12.37;;;;;;;4.45;88.70;99704.75;5031085;28;20199;-57
2023/01/30 07:27:33;;;;;;;20.50;12.63;;;;;;;4.44;89.06;99696.19;5030460;28;20768;-56
2023/01/30 07:30:00;;;;;;;19.67;11.90;;;;;;;4.43;89.63;99694.47;5031169;28;20287;-55
2023/01/30 07:32:27;;;;;;;25.17;13.07;;;;;;;4.51;88.92;99703.06;5031222;28;20197;-56
2023/01/30 07:34:54;;;;;;;23.87;13.40;;;;;;;4.59;88.90;99701.31;5031017;28;20202;-56
2023/01/30 07:37:22;;;;;;;24.17;12.97;;;;;;;4.62;88.85;99706.47;5031251;28;20205;-55
2023/01/30 07:39:49;;;;;;;23.40;12.70;;;;;;;4.61;88.83;99701.31;5031079;28;20232;-57
2023/01/30 07:42:16;;;;;;;20.70;12.23;;;;;;;4.66;88.51;99702.16;5030942;28;20205;-58
2023/01/30 07:44:43;;;;;;;22.87;12.80;;;;;;;4.54;89.16;99694.47;5030748;28;20788;-58
2023/01/30 07:47:10;;;;;;;50.97;28.37;;;;;;;4.58;89.08;99693.59;5024621;28;20209;-58
2023/01/30 07:49:36;;;;;;;32.03;16.10;;;;;;;4.71;88.94;99701.31;5015762;28;20206;-57
2023/01/30 07:52:04;;;;;;;23.07;14.43;;;;;;;4.74;88.82;99696.13;5011280;28;20202;-58
2023/01/30 07:54:32;;;;;;;26.57;13.60;;;;;;;4.61;88.48;99689.31;5019928;28;20571;-57
2023/01/30 07:56:59;;;;;;;22.97;12.57;;;;;;;4.57;88.77;99699.59;5031134;28;20205;-57
2023/01/30 07:59:26;;;;;;;39.33;13.90;;;;;;;4.66;88.85;99692.72;5030999;28;20207;-57
2023/01/30 08:01:53;;;;;;;59.40;15.90;;;;;;;4.63;89.33;99692.72;5031229;28;20195;-58
2023/01/30 08:04:20;;;;;;;47.77;13.93;;;;;;;4.64;88.51;99688.44;5029525;28;20201;-55
2023/01/30 08:06:47;;;;;;;34.20;14.80;;;;;;;4.71;88.46;99683.31;5029403;28;20293;-55
2023/01/30 08:09:14;;;;;;;21.70;12.33;;;;;;;4.78;88.66;99690.97;5028658;28;20604;-56
2023/01/30 08:11:42;;;;;;;28.60;13.37;;;;;;;4.84;88.42;99691.00;5028524;28;20194;-55
2023/01/30 08:14:09;;;;;;;32.57;12.43;;;;;;;4.90;87.70;99696.09;5028273;28;20705;-56
2023/01/30 08:16:37;;;;;;;25.60;12.33;;;;;;;4.80;87.73;99699.56;5028587;28;20189;-55
2023/01/30 08:19:05;;;;;;;24.47;13.80;;;;;;;4.72;87.95;99690.16;5028536;28;20265;-56
2023/01/30 08:21:32;;;;;;;43.40;15.63;;;;;;;4.64;88.26;99688.44;5025837;28;20584;-56
2023/01/30 08:23:59;;;;;;;31.50;15.30;;;;;;;4.71;88.26;99682.44;5028600;28;20202;-56
2023/01/30 08:26:26;;;;;;;23.93;12.83;;;;;;;4.74;87.57;99679.84;5029136;28;20664;-56
2023/01/30 08:28:55;;;;;;;38.10;19.27;;;;;;;4.80;87.50;99673.84;5029318;28;20227;-56
2023/01/30 08:31:22;;;;;;;153.17;45.20;;;;;;;4.91;87.55;99683.22;5030001;28;20205;-58
2023/01/30 08:33:49;;;;;;;70.27;25.73;;;;;;;4.94;87.23;99688.38;5030298;28;20200;-57
2023/01/30 08:36:16;;;;;;;35.10;16.57;;;;;;;4.96;86.49;99673.81;5030105;28;20225;-58
2023/01/30 08:38:43;;;;;;;26.10;14.17;;;;;;;4.93;86.63;99680.66;5030016;28;20199;-58
2023/01/30 08:41:10;;;;;;;49.63;23.20;;;;;;;4.93;87.11;99663.50;5030037;28;20198;-58
2023/01/30 08:43:39;;;;;;;24.40;13.77;;;;;;;4.93;86.27;99673.81;5029852;28;20239;-59
2023/01/30 08:46:08;;;;;;;32.13;16.37;;;;;;;4.91;86.23;99682.38;5029066;28;20206;-56
2023/01/30 08:48:36;;;;;;;29.43;15.27;;;;;;;4.77;86.94;99676.41;5028441;28;20220;-57
2023/01/30 08:51:03;;;;;;;23.27;13.97;;;;;;;4.70;87.30;99680.72;5024321;28;20296;-58
2023/01/30 08:53:30;;;;;;;40.20;15.53;;;;;;;4.88;86.67;99678.09;5028600;28;20203;-58
2023/01/30 08:55:57;;;;;;;55.70;25.83;;;;;;;5.00;86.62;99678.06;5028515;28;20219;-59
2023/01/30 08:58:24;;;;;;;39.50;19.83;;;;;;;5.02;87.06;99678.91;5028700;28;20193;-58
2023/01/30 09:00:51;;;;;;;42.20;21.40;;;;;;;5.08;86.19;99676.28;5028454;28;20289;-58
2023/01/30 09:03:20;;;;;;;31.93;18.50;;;;;;;5.18;85.82;99666.00;5028780;28;20205;-58
2023/01/30 09:05:47;;;;;;;24.03;12.97;;;;;;;5.31;85.26;99667.63;5028486;28;20584;-57
2023/01/30 09:08:13;;;;;;;22.97;13.13;;;;;;;5.29;85.18;99670.22;5028203;28;20213;-58
2023/01/30 09:10:40;;;;;;;20.67;11.50;;;;;;;5.33;85.21;99661.59;5027679;28;20204;-57
2023/01/30 09:13:09;;;;;;;20.37;11.60;;;;;;;5.26;84.90;99646.22;5028217;28;20193;-58
2023/01/30 09:15:36;;;;;;;24.47;12.20;;;;;;;5.37;84.53;99652.16;5028291;28;20193;-58
2023/01/30 09:18:04;;;;;;;18.57;11.73;;;;;;;5.32;84.73;99649.59;5023079;28;20200;-55
2023/01/30 09:20:32;;;;;;;16.17;11.17;;;;;;;5.45;85.04;99648.66;5027818;28;20193;-57
2023/01/30 09:22:59;;;;;;;15.77;10.70;;;;;;;5.46;84.05;99649.53;5027591;28;20229;-56
2023/01/30 09:25:27;;;;;;;22.47;12.10;;;;;;;5.34;84.31;99641.88;5027791;28;20220;-55
2023/01/30 09:27:54;;;;;;;18.27;11.97;;;;;;;5.41;84.48;99641.84;5032028;28;20292;-56
2023/01/30 09:30:21;;;;;;;22.20;12.87;;;;;;;5.49;84.36;99641.78;5031945;28;20208;-57
2023/01/30 09:32:48;;;;;;;23.70;15.23;;;;;;;5.41;84.58;99639.28;5033349;28;20602;-57
2023/01/30 09:35:15;;;;;;;28.27;16.17;;;;;;;5.41;84.05;99620.41;5033146;28;20206;-58
2023/01/30 09:37:49;;;;;;;20.43;11.67;;;;;;;5.45;84.25;99619.50;5033060;28;20563;-57
2023/01/30 09:40:18;;;;;;;20.47;12.00;;;;;;;5.43;83.62;99616.06;5031528;28;20189;-55
2023/01/30 09:43:11;;;;;;;22.60;11.80;;;;;;;5.55;83.40;99616.00;5030918;28;20203;-56
2023/01/30 09:45:43;;;;;;;20.30;10.93;;;;;;;5.47;83.47;99608.31;5030221;28;20658;-56
2023/01/30 09:48:16;;;;;;;16.73;10.33;;;;;;;5.29;83.35;99592.16;5028897;28;20526;-55
2023/01/30 09:51:11;;;;;;;23.07;11.23;;;;;;;5.39;84.03;99609.25;5031780;28;20203;-58
2023/01/30 09:53:58;;;;;;;18.40;11.90;;;;;;;5.30;85.50;99599.03;5018281;28;20207;-57
2023/01/30 09:56:25;;;;;;;21.87;13.20;;;;;;;5.31;85.67;99598.97;5031916;28;20203;-55
2023/01/30 09:58:56;;;;;;;24.40;14.73;;;;;;;5.47;84.99;99592.03;5031261;28;20994;-55
2023/01/30 10:01:30;;;;;;;27.43;15.33;;;;;;;5.57;85.85;99596.25;5031540;28;20198;-58
2023/01/30 10:04:13;;;;;;;21.53;12.40;;;;;;;5.56;85.15;99568.78;5031315;28;20698;-56
2023/01/30 10:06:51;;;;;;;19.53;11.50;;;;;;;5.71;85.20;99570.41;5029220;28;20197;-55
2023/01/30 10:09:31;;;;;;;17.77;11.57;;;;;;;5.69;84.39;99567.81;5028681;28;20216;-56
2023/01/30 10:12:11;;;;;;;20.43;11.33;;;;;;;5.71;83.72;99565.25;5030635;28;20197;-58
2023/01/30 10:14:54;;;;;;;21.50;11.40;;;;;;;5.66;83.98;99552.41;5032219;28;20197;-57
2023/01/30 10:17:36;;;;;;;16.67;10.87;;;;;;;5.70;83.77;99550.66;5032304;28;20690;-57
2023/01/30 10:20:28;;;;;;;21.07;13.03;;;;;;;5.69;83.66;99544.66;5032344;28;20207;-58
2023/01/30 10:23:04;;;;;;;17.43;11.00;;;;;;;5.75;83.68;99534.31;5032413;28;20196;-58
2023/01/30 10:25:39;;;;;;;15.87;11.27;;;;;;;5.82;83.57;99533.38;5032678;28;20196;-58
2023/01/30 10:28:12;;;;;;;22.57;11.07;;;;;;;5.88;82.67;99529.00;5032083;28;20243;-55
2023/01/30 10:30:39;;;;;;;19.37;9.90;;;;;;;5.80;82.82;99527.38;5029377;28;20217;-56
2023/01/30 10:33:13;;;;;;;15.77;11.27;;;;;;;5.96;82.62;99522.13;5031618;28;20205;-55
2023/01/30 10:35:43;;;;;;;16.63;9.97;;;;;;;5.86;82.16;99512.75;5031616;28;20215;-55
2023/01/30 10:38:19;;;;;;;18.57;11.37;;;;;;;5.87;82.02;99501.56;5031358;28;20224;-56
2023/01/30 10:40:54;;;;;;;58.57;23.33;;;;;;;5.85;82.28;99501.59;5031425;28;20197;-55
2023/01/30 10:43:28;;;;;;;52.00;24.93;;;;;;;5.93;81.84;99502.38;5031101;28;20692;-56
2023/01/30 10:46:04;;;;;;;27.27;13.67;;;;;;;5.86;81.81;99492.13;5031625;28;20292;-55
2023/01/30 10:48:52;;;;;;;20.23;12.03;;;;;;;5.87;81.62;99488.69;5031358;28;20230;-55
2023/01/30 10:51:27;;;;;;;18.23;10.77;;;;;;;5.73;81.90;99466.50;5031339;28;20616;-55
2023/01/30 10:54:01;;;;;;;16.70;10.53;;;;;;;5.72;82.35;99464.81;5031973;28;20227;-56
2023/01/30 10:56:37;;;;;;;19.70;11.37;;;;;;;5.72;82.46;99461.38;5031432;28;20237;-55
2023/01/30 10:59:16;;;;;;;20.23;12.53;;;;;;;5.74;82.67;99462.22;5031088;28;20193;-55
2023/01/30 11:01:45;;;;;;;19.73;12.60;;;;;;;5.81;82.75;99454.41;5030872;28;20196;-56
2023/01/30 11:04:24;;;;;;;17.37;11.80;;;;;;;5.81;82.37;99440.66;5031043;28;20204;-56
2023/01/30 11:06:55;;;;;;;20.03;10.63;;;;;;;5.92;81.26;99440.56;5031066;28;20201;-56
2023/01/30 11:09:22;;;;;;;18.20;10.03;;;;;;;5.95;81.18;99435.41;5030968;28;20231;-55
2023/01/30 11:11:52;;;;;;;17.60;10.97;;;;;;;6.05;80.63;99424.13;5031017;28;20769;-55
2023/01/30 11:14:20;;;;;;;17.60;11.07;;;;;;;6.10;81.32;99427.47;5030688;28;20598;-58
2023/01/30 11:16:49;;;;;;;17.93;10.87;;;;;;;6.25;81.31;99429.00;5031879;28;20201;-58
2023/01/30 11:19:19;;;;;;;20.63;13.43;;;;;;;6.32;80.52;99417.78;5030970;28;20199;-55
2023/01/30 11:21:50;;;;;;;27.17;13.57;;;;;;;6.28;81.00;99404.06;5030591;28;20200;-54
2023/01/30 11:24:20;;;;;;;20.90;14.07;;;;;;;6.29;80.95;99412.66;5031347;28;20288;-58
2023/01/30 11:26:47;;;;;;;20.63;10.93;;;;;;;6.11;80.39;99395.69;5031607;28;20240;-57
2023/01/30 11:29:29;;;;;;;16.07;10.27;;;;;;;6.14;80.91;99396.50;5031412;28;20355;-58
2023/01/30 11:31:56;;;;;;;18.13;11.47;;;;;;;6.17;80.64;99400.78;5023020;28;20196;-58
2023/01/30 11:34:24;;;;;;;19.10;11.40;;;;;;;6.28;79.78;99383.44;5030777;28;20199;-57
2023/01/30 11:36:52;;;;;;;19.20;11.13;;;;;;;6.49;79.89;99388.28;5030607;28;20251;-59
2023/01/30 11:39:22;;;;;;;20.37;11.93;;;;;;;6.54;79.13;99375.34;5029345;28;20203;-58
2023/01/30 11:42:00;;;;;;;19.00;11.83;;;;;;;6.49;79.63;99367.66;5026425;28;20212;-58
2023/01/30 11:44:31;;;;;;;20.90;11.87;;;;;;;6.42;79.55;99366.06;5027030;28;20721;-58